Time;durP1;ratioP1;P1;durP2;ratioP2;P2;SDS_P1;SDS_P2;PMS_P1;PMS_P2;Temp;Humidity;BMP_temperature;BMP_pressure;BME280_temperature;BME280_humidity;BME280_pressure;Samples;Min_cycle;Max_cycle;Signal;HPM_P1;HPM_P2
2023/06/06 00:01:43;;;;;;;6.68;2.47;;;18.60;73.40;;;;;;5051737;28;20398;-69
2023/06/06 00:04:09;;;;;;;5.55;2.58;;;18.60;72.20;;;;;;5052731;28;20104;-69
2023/06/06 00:06:35;;;;;;;5.72;2.53;;;18.60;73.70;;;;;;5053181;28;20109;-69
2023/06/06 00:09:05;;;;;;;3.28;2.33;;;18.70;74.00;;;;;;5052901;28;20038;-71
2023/06/06 00:11:31;;;;;;;9.07;2.67;;;18.50;74.30;;;;;;5052746;28;20395;-69
2023/06/06 00:13:57;;;;;;;4.47;2.42;;;18.50;74.60;;;;;;5052742;28;20037;-70
2023/06/06 00:16:27;;;;;;;3.47;2.35;;;18.50;74.90;;;;;;5052902;28;20037;-69
2023/06/06 00:18:55;;;;;;;4.43;2.72;;;18.40;75.20;;;;;;5052813;28;20107;-69
2023/06/06 00:21:21;;;;;;;4.78;2.50;;;18.40;75.60;;;;;;5052684;28;20036;-72
2023/06/06 00:23:47;;;;;;;5.72;2.85;;;18.40;75.20;;;;;;5051505;28;20036;-70
2023/06/06 00:26:13;;;;;;;5.57;2.67;;;18.30;76.20;;;;;;5052474;28;20025;-71
2023/06/06 00:28:39;;;;;;;7.43;2.78;;;18.30;76.80;;;;;;5052622;28;20090;-69
2023/06/06 00:31:04;;;;;;;5.35;2.78;;;18.20;77.00;;;;;;5052566;28;20029;-70
2023/06/06 00:33:30;;;;;;;3.97;2.78;;;18.20;77.20;;;;;;5051680;28;20017;-70
2023/06/06 00:35:56;;;;;;;5.53;2.70;;;18.10;77.90;;;;;;5052222;28;20359;-70
2023/06/06 00:38:21;;;;;;;5.47;2.25;;;18.00;77.70;;;;;;5052207;28;20561;-71
2023/06/06 00:40:47;;;;;;;6.35;2.60;;;18.00;78.20;;;;;;5051990;28;20116;-69
2023/06/06 00:43:13;;;;;;;4.40;2.50;;;18.00;77.70;;;;;;5052121;28;20043;-69
2023/06/06 00:45:39;;;;;;;6.03;2.85;;;18.00;78.60;;;;;;5052866;28;20122;-69
2023/06/06 00:48:05;;;;;;;6.28;2.40;;;17.90;78.40;;;;;;5051017;28;20075;-69
2023/06/06 00:50:32;;;;;;;4.47;2.20;;;18.00;79.00;;;;;;5051919;28;20498;-70
2023/06/06 00:52:58;;;;;;;11.37;3.03;;;18.00;79.40;;;;;;5051977;28;20040;-70
2023/06/06 00:55:24;;;;;;;4.50;2.42;;;17.90;80.00;;;;;;5051830;28;20037;-69
2023/06/06 00:57:51;;;;;;;6.53;2.50;;;17.80;80.40;;;;;;5052085;28;20029;-69
2023/06/06 01:00:17;;;;;;;5.75;2.95;;;17.80;80.90;;;;;;5052273;28;20329;-69
2023/06/06 01:02:43;;;;;;;5.53;2.65;;;17.70;81.20;;;;;;5051705;28;20029;-70
2023/06/06 01:05:10;;;;;;;4.70;2.42;;;17.70;81.30;;;;;;5051738;28;20086;-69
2023/06/06 01:07:36;;;;;;;6.13;2.33;;;17.70;81.40;;;;;;5051555;28;20032;-70
2023/06/06 01:10:07;;;;;;;5.45;2.83;;;17.60;81.90;;;;;;5051499;28;20033;-69
2023/06/06 01:12:58;;;;;;;5.95;2.80;;;17.60;82.20;;;;;;5051967;28;20398;-71
2023/06/06 01:15:34;;;;;;;6.15;2.47;;;17.60;82.80;;;;;;5051598;28;20043;-69
2023/06/06 01:18:01;;;;;;;6.47;2.80;;;17.50;83.10;;;;;;5050303;28;20060;-69
2023/06/06 01:20:28;;;;;;;6.85;2.95;;;17.60;83.60;;;;;;5051320;28;20658;-71
2023/06/06 01:22:54;;;;;;;6.40;2.85;;;17.50;83.70;;;;;;5051242;28;20035;-68
2023/06/06 01:25:23;;;;;;;8.50;3.20;;;17.50;83.50;;;;;;5051490;28;20040;-69
2023/06/06 01:27:53;;;;;;;9.13;3.25;;;17.50;83.30;;;;;;5051660;28;20029;-69
2023/06/06 01:30:21;;;;;;;3.72;2.53;;;17.50;84.00;;;;;;5050418;28;20037;-69
2023/06/06 01:32:53;;;;;;;7.70;3.30;;;17.50;84.40;;;;;;5049235;28;20033;-69
2023/06/06 01:35:52;;;;;;;4.43;2.75;;;17.40;84.40;;;;;;5046584;28;20054;-69
2023/06/06 01:38:23;;;;;;;7.78;3.22;;;17.40;85.20;;;;;;5031236;28;20091;-69
2023/06/06 01:40:53;;;;;;;4.13;2.90;;;17.40;85.40;;;;;;5031139;28;20037;-69
2023/06/06 01:43:22;;;;;;;7.82;3.20;;;17.40;85.10;;;;;;5031144;28;20037;-69
2023/06/06 01:45:49;;;;;;;6.30;3.25;;;17.40;85.10;;;;;;5030945;28;20037;-69
2023/06/06 01:48:16;;;;;;;5.57;3.30;;;17.40;85.20;;;;;;5031690;28;20084;-69
2023/06/06 01:50:43;;;;;;;9.80;3.50;;;17.40;85.00;;;;;;5030789;28;20120;-69
2023/06/06 01:53:09;;;;;;;7.68;3.45;;;17.50;85.30;;;;;;5030999;28;20040;-70
2023/06/06 01:55:36;;;;;;;6.78;3.40;;;17.40;85.90;;;;;;5029937;28;20034;-69
2023/06/06 01:58:03;;;;;;;5.43;2.78;;;17.30;86.50;;;;;;5030923;28;20129;-69
2023/06/06 02:00:29;;;;;;;9.48;3.92;;;17.30;86.70;;;;;;5031099;28;20036;-68
2023/06/06 02:02:55;;;;;;;6.55;3.53;;;17.30;85.70;;;;;;5029670;28;20099;-69
2023/06/06 02:05:21;;;;;;;9.50;3.60;;;17.20;86.90;;;;;;5030836;28;20033;-69
2023/06/06 02:07:49;;;;;;;6.13;3.17;;;17.20;87.20;;;;;;5030989;28;20041;-68
2023/06/06 02:10:15;;;;;;;4.78;3.33;;;17.10;87.50;;;;;;5030926;28;20036;-69
2023/06/06 02:12:41;;;;;;;6.95;3.40;;;17.20;88.00;;;;;;5030026;28;20033;-69
2023/06/06 02:15:09;;;;;;;7.22;3.60;;;17.10;87.30;;;;;;5029541;28;20037;-68
2023/06/06 02:17:35;;;;;;;7.35;3.80;;;17.10;88.30;;;;;;5029398;28;20163;-68
2023/06/06 02:20:01;;;;;;;7.35;4.07;;;17.10;88.40;;;;;;5030430;28;20112;-69
2023/06/06 02:22:27;;;;;;;7.18;3.40;;;17.10;88.70;;;;;;5030553;28;20033;-69
2023/06/06 02:24:53;;;;;;;11.52;3.72;;;17.00;89.10;;;;;;5030660;28;20029;-69
2023/06/06 02:27:19;;;;;;;5.25;3.47;;;17.00;88.20;;;;;;5029839;28;20163;-68
2023/06/06 02:29:45;;;;;;;8.00;3.72;;;17.00;89.40;;;;;;5030229;28;20065;-69
2023/06/06 02:32:11;;;;;;;12.10;3.97;;;17.00;89.30;;;;;;5029229;28;20038;-69
2023/06/06 02:34:37;;;;;;;10.43;3.95;;;17.00;89.50;;;;;;5029290;28;20089;-69
2023/06/06 02:37:06;;;;;;;9.98;4.28;;;16.90;89.90;;;;;;5030289;28;20053;-69
2023/06/06 02:39:35;;;;;;;9.55;4.28;;;16.90;89.50;;;;;;5030605;28;20045;-69
2023/06/06 02:42:05;;;;;;;12.05;3.90;;;17.00;89.30;;;;;;5029142;28;20029;-69
2023/06/06 02:44:32;;;;;;;7.45;3.78;;;16.90;90.10;;;;;;5035765;28;20076;-68
2023/06/06 02:46:57;;;;;;;9.00;3.90;;;16.90;90.10;;;;;;5035833;28;20040;-69
2023/06/06 02:49:23;;;;;;;8.25;4.05;;;16.80;90.50;;;;;;5035804;28;20025;-69
2023/06/06 02:51:49;;;;;;;8.23;4.15;;;16.70;90.60;;;;;;5036723;28;20021;-69
2023/06/06 02:54:15;;;;;;;6.22;3.70;;;16.80;90.40;;;;;;5037262;28;20035;-69
2023/06/06 02:56:40;;;;;;;6.78;4.22;;;16.80;90.80;;;;;;5036934;28;20056;-69
2023/06/06 02:59:09;;;;;;;7.68;3.97;;;16.70;90.80;;;;;;5036818;28;20069;-68
2023/06/06 03:01:36;;;;;;;6.85;3.72;;;16.70;90.40;;;;;;5036951;28;20026;-69
2023/06/06 03:04:02;;;;;;;7.38;4.60;;;16.70;90.50;;;;;;5036744;28;20128;-69
2023/06/06 03:06:28;;;;;;;6.57;3.78;;;16.70;90.70;;;;;;5037033;28;20047;-69
2023/06/06 03:08:57;;;;;;;7.93;4.05;;;16.80;90.70;;;;;;5036583;28;20032;-70
2023/06/06 03:11:25;;;;;;;10.43;4.03;;;16.80;90.30;;;;;;5036662;28;20041;-69
2023/06/06 03:13:51;;;;;;;9.50;4.40;;;16.90;90.50;;;;;;5036491;28;20083;-70
2023/06/06 03:16:16;;;;;;;7.78;4.50;;;16.80;90.90;;;;;;5036692;28;20029;-69
2023/06/06 03:18:47;;;;;;;7.47;3.97;;;16.80;91.00;;;;;;5036916;28;20336;-69
2023/06/06 03:21:14;;;;;;;7.88;4.30;;;16.80;91.00;;;;;;5036919;28;20139;-69
2023/06/06 03:23:39;;;;;;;7.88;4.18;;;16.80;91.20;;;;;;5036375;28;20030;-70
2023/06/06 03:26:05;;;;;;;9.60;5.22;;;16.70;91.30;;;;;;5036615;28;20355;-69
2023/06/06 03:28:31;;;;;;;10.52;4.75;;;16.70;90.90;;;;;;5036433;28;20025;-70
2023/06/06 03:30:57;;;;;;;11.50;5.20;;;16.80;90.50;;;;;;5035375;28;20104;-69
2023/06/06 03:33:24;;;;;;;8.23;4.68;;;16.90;90.80;;;;;;5036707;28;20425;-69
2023/06/06 03:35:50;;;;;;;9.25;5.22;;;16.90;90.80;;;;;;5036181;28;20057;-69
2023/06/06 03:38:16;;;;;;;8.15;4.57;;;16.90;90.80;;;;;;5035297;28;20363;-69
2023/06/06 03:40:41;;;;;;;11.55;4.60;;;16.90;91.00;;;;;;5036173;28;20065;-69
2023/06/06 03:43:07;;;;;;;14.48;4.93;;;16.90;90.80;;;;;;5036158;28;20091;-69
2023/06/06 03:45:33;;;;;;;9.18;4.63;;;16.90;90.90;;;;;;5035626;28;20351;-70
2023/06/06 03:47:58;;;;;;;10.13;4.53;;;16.90;90.90;;;;;;5036172;28;20044;-69
2023/06/06 03:50:24;;;;;;;10.77;5.03;;;16.90;90.70;;;;;;5035036;28;20030;-69
2023/06/06 03:52:50;;;;;;;10.23;5.22;;;16.90;90.60;;;;;;5036222;28;20025;-70
2023/06/06 03:55:16;;;;;;;10.80;5.05;;;16.90;90.70;;;;;;5033522;28;20042;-69
2023/06/06 03:57:41;;;;;;;7.63;4.20;;;16.90;90.70;;;;;;5033477;28;20029;-69
2023/06/06 04:00:13;;;;;;;16.23;5.22;;;16.80;91.40;;;;;;5033151;28;20037;-69
2023/06/06 04:02:46;;;;;;;8.13;4.50;;;16.90;91.20;;;;;;5033013;28;20481;-68
2023/06/06 04:05:12;;;;;;;11.75;4.65;;;16.70;91.60;;;;;;5032859;28;20095;-69
2023/06/06 04:07:38;;;;;;;13.05;5.15;;;16.70;91.60;;;;;;5032848;28;20025;-68
2023/06/06 04:10:05;;;;;;;10.73;4.88;;;16.80;90.70;;;;;;5032767;28;20525;-69
2023/06/06 04:12:30;;;;;;;9.55;5.15;;;16.90;90.90;;;;;;5032441;28;20026;-69
2023/06/06 04:14:56;;;;;;;16.00;6.03;;;16.90;90.80;;;;;;5032719;28;20041;-68
2023/06/06 04:17:24;;;;;;;11.57;4.72;;;16.90;91.20;;;;;;5032699;28;20117;-68
2023/06/06 04:19:50;;;;;;;15.98;5.65;;;16.90;91.40;;;;;;5032925;28;20029;-69
2023/06/06 04:22:17;;;;;;;7.13;3.83;;;16.90;91.00;;;;;;5032578;28;20443;-69
2023/06/06 04:24:43;;;;;;;11.10;4.80;;;16.90;90.80;;;;;;5032888;28;20025;-69
2023/06/06 04:27:09;;;;;;;9.07;4.88;;;17.00;90.80;;;;;;5032506;28;20060;-69
2023/06/06 04:29:35;;;;;;;23.10;5.75;;;16.90;91.30;;;;;;5032237;28;20064;-69
2023/06/06 04:32:02;;;;;;;11.88;5.05;;;17.00;90.90;;;;;;5032239;28;20459;-69
2023/06/06 04:34:31;;;;;;;6.60;4.05;;;17.00;91.30;;;;;;5031459;28;20037;-69
2023/06/06 04:37:06;;;;;;;9.70;4.20;;;17.00;90.90;;;;;;5032199;28;20029;-69
2023/06/06 04:39:34;;;;;;;11.63;4.28;;;17.00;91.00;;;;;;5032396;28;20117;-69
2023/06/06 04:42:01;;;;;;;14.43;4.30;;;17.00;90.90;;;;;;5032207;28;20022;-68
2023/06/06 04:44:27;;;;;;;12.20;4.45;;;17.00;90.80;;;;;;5032278;28;20286;-70
2023/06/06 04:47:00;;;;;;;14.13;4.63;;;17.10;90.70;;;;;;5032090;28;20053;-69
2023/06/06 04:49:38;;;;;;;19.83;4.20;;;17.00;91.50;;;;;;5032100;28;20387;-70
2023/06/06 04:52:08;;;;;;;15.60;5.05;;;17.00;91.40;;;;;;5031912;28;20033;-68
2023/06/06 04:54:37;;;;;;;27.30;5.70;;;17.00;91.50;;;;;;5032400;28;20025;-69
2023/06/06 04:57:06;;;;;;;30.40;6.25;;;17.00;91.40;;;;;;5031969;28;20436;-68
2023/06/06 04:59:33;;;;;;;29.13;4.70;;;17.00;91.80;;;;;;5031794;28;20507;-69
2023/06/06 05:02:01;;;;;;;13.82;4.68;;;17.00;91.60;;;;;;5031683;28;20026;-68
2023/06/06 05:04:29;;;;;;;19.65;5.47;;;17.00;91.70;;;;;;5030667;28;20413;-69
2023/06/06 05:06:56;;;;;;;9.68;4.78;;;17.00;92.00;;;;;;5030492;28;20036;-69
2023/06/06 05:09:21;;;;;;;15.63;5.45;;;16.90;92.20;;;;;;5032621;28;20042;-69
2023/06/06 05:11:49;;;;;;;9.40;4.93;;;17.00;92.00;;;;;;5031594;28;20053;-68
2023/06/06 05:14:23;;;;;;;10.32;4.80;;;17.00;92.00;;;;;;5030274;28;20033;-69
2023/06/06 05:16:51;;;;;;;18.63;6.80;;;17.20;91.70;;;;;;5031444;28;20451;-69
2023/06/06 05:19:17;;;;;;;12.00;5.40;;;17.20;91.60;;;;;;5031327;28;20464;-69
2023/06/06 05:21:43;;;;;;;14.52;4.72;;;17.30;91.80;;;;;;5030681;28;20127;-69
2023/06/06 05:24:09;;;;;;;11.43;5.82;;;17.30;91.60;;;;;;5031257;28;20037;-69
2023/06/06 05:26:34;;;;;;;12.80;5.30;;;17.30;91.60;;;;;;5030377;28;20547;-68
2023/06/06 05:29:00;;;;;;;11.02;5.13;;;17.40;91.50;;;;;;5031040;28;20095;-68
2023/06/06 05:31:26;;;;;;;12.55;5.40;;;17.50;91.20;;;;;;5031103;28;20041;-69
2023/06/06 05:33:53;;;;;;;8.43;4.55;;;17.60;91.20;;;;;;5031256;28;20112;-70
2023/06/06 05:36:19;;;;;;;8.73;4.43;;;17.80;90.80;;;;;;5031627;28;20108;-70
2023/06/06 05:38:46;;;;;;;7.88;4.05;;;17.90;90.30;;;;;;5031075;28;20341;-70
2023/06/06 05:41:12;;;;;;;6.15;3.55;;;18.10;90.10;;;;;;5030959;28;20103;-68
2023/06/06 05:43:38;;;;;;;16.45;4.55;;;18.10;90.00;;;;;;5030948;28;20041;-70
2023/06/06 05:46:03;;;;;;;15.65;3.08;;;18.20;89.30;;;;;;5030818;28;20037;-70
2023/06/06 05:48:29;;;;;;;7.35;3.13;;;18.30;88.70;;;;;;5031193;28;20079;-69
2023/06/06 05:50:56;;;;;;;6.18;3.10;;;18.30;88.20;;;;;;5030689;28;20041;-70
2023/06/06 05:53:22;;;;;;;5.20;3.35;;;18.40;88.10;;;;;;5030803;28;20040;-70
2023/06/06 05:55:47;;;;;;;10.10;2.70;;;18.40;87.90;;;;;;5030682;28;20029;-71
2023/06/06 05:58:13;;;;;;;18.00;3.65;;;18.50;87.50;;;;;;5035841;28;20367;-69
2023/06/06 06:00:39;;;;;;;11.77;2.97;;;18.50;87.20;;;;;;5050772;28;20461;-70
2023/06/06 06:03:07;;;;;;;11.48;2.95;;;18.50;86.80;;;;;;5050656;28;20029;-70
2023/06/06 06:05:33;;;;;;;13.35;3.15;;;18.60;86.10;;;;;;5050734;28;20029;-70
2023/06/06 06:08:00;;;;;;;7.40;3.20;;;18.60;86.40;;;;;;5050487;28;20078;-71
2023/06/06 06:10:26;;;;;;;12.20;3.13;;;18.60;86.10;;;;;;5050622;28;20032;-72
2023/06/06 06:12:52;;;;;;;5.32;2.75;;;18.60;86.30;;;;;;5049295;28;20055;-72
2023/06/06 06:15:18;;;;;;;14.07;3.20;;;18.60;85.90;;;;;;5050801;28;20448;-73
2023/06/06 06:17:44;;;;;;;4.20;2.70;;;18.60;85.70;;;;;;5049986;28;20036;-71
2023/06/06 06:20:11;;;;;;;7.10;2.67;;;18.70;86.00;;;;;;5050209;28;20036;-73
2023/06/06 06:22:37;;;;;;;9.07;2.95;;;18.70;85.70;;;;;;5050285;28;20028;-72
2023/06/06 06:25:04;;;;;;;9.85;2.85;;;18.80;85.40;;;;;;5050270;28;20474;-72
2023/06/06 06:27:30;;;;;;;7.63;3.50;;;18.90;85.50;;;;;;5050793;28;20470;-72
2023/06/06 06:29:56;;;;;;;9.98;2.85;;;19.10;85.30;;;;;;5050082;28;20398;-70
2023/06/06 06:32:23;;;;;;;6.68;3.45;;;19.20;85.10;;;;;;5050223;28;20041;-71
2023/06/06 06:34:49;;;;;;;15.60;3.58;;;19.40;85.00;;;;;;5050256;28;20037;-72
2023/06/06 06:37:16;;;;;;;27.90;3.78;;;19.50;84.50;;;;;;5050286;28;20029;-71
2023/06/06 06:39:42;;;;;;;12.18;2.58;;;19.50;84.10;;;;;;5050678;28;20032;-73
2023/06/06 06:42:08;;;;;;;12.23;2.92;;;19.50;83.80;;;;;;5048948;28;20051;-71
2023/06/06 06:44:34;;;;;;;7.05;3.08;;;19.60;83.60;;;;;;5050047;28;20025;-72
2023/06/06 06:47:01;;;;;;;8.25;2.65;;;19.50;83.40;;;;;;5050301;28;20029;-72
2023/06/06 06:49:26;;;;;;;7.13;3.00;;;19.60;83.60;;;;;;5050044;28;20033;-70
2023/06/06 06:51:52;;;;;;;6.60;2.58;;;19.50;83.10;;;;;;5050007;28;20458;-69
2023/06/06 06:54:21;;;;;;;9.60;2.60;;;19.50;83.50;;;;;;5050408;28;20359;-70
2023/06/06 06:56:48;;;;;;;9.90;3.13;;;19.60;83.30;;;;;;5050114;28;20049;-68
2023/06/06 06:59:14;;;;;;;6.10;2.42;;;19.80;83.10;;;;;;5050052;28;20037;-70
2023/06/06 07:01:40;;;;;;;6.57;2.70;;;19.90;82.20;;;;;;5049904;28;20055;-70
2023/06/06 07:04:08;;;;;;;14.52;2.80;;;20.10;81.90;;;;;;5049858;28;20355;-70
2023/06/06 07:06:36;;;;;;;5.38;3.08;;;20.40;82.20;;;;;;5050516;28;20443;-70
2023/06/06 07:09:04;;;;;;;8.90;3.35;;;20.60;81.50;;;;;;5049924;28;20064;-69
2023/06/06 07:11:30;;;;;;;3.72;2.50;;;20.70;81.40;;;;;;5048940;28;20029;-68
2023/06/06 07:13:56;;;;;;;10.88;3.17;;;20.70;81.30;;;;;;5049886;28;20037;-69
2023/06/06 07:16:23;;;;;;;13.88;3.35;;;20.80;81.00;;;;;;5049645;28;20043;-70
2023/06/06 07:18:51;;;;;;;14.05;2.83;;;20.80;80.70;;;;;;5049608;28;20426;-67
2023/06/06 07:21:19;;;;;;;6.63;2.72;;;20.80;80.70;;;;;;5050115;28;20397;-70
2023/06/06 07:23:47;;;;;;;11.77;3.08;;;20.80;81.00;;;;;;5049581;28;20040;-70
2023/06/06 07:26:17;;;;;;;;;;;20.90;80.70;;;;;;5050105;28;20082;-71
2023/06/06 07:28:43;;;;;;;6.68;2.63;;;21.00;80.80;;;;;;5049618;28;19977;-67
2023/06/06 07:31:10;;;;;;;6.57;3.03;;;21.10;80.40;;;;;;5051820;28;20053;-67
2023/06/06 07:33:36;;;;;;;9.90;2.95;;;21.00;80.40;;;;;;5053773;28;20017;-68
2023/06/06 07:36:03;;;;;;;6.05;2.97;;;21.10;80.40;;;;;;5053383;28;20033;-70
2023/06/06 07:38:28;;;;;;;11.65;3.00;;;21.10;79.40;;;;;;5053311;28;20063;-68
2023/06/06 07:40:54;;;;;;;7.68;2.63;;;21.20;79.50;;;;;;5053070;28;20060;-75
2023/06/06 07:43:20;;;;;;;7.95;2.60;;;21.30;78.60;;;;;;5053454;28;20029;-70
2023/06/06 07:45:45;;;;;;;5.28;2.22;;;21.40;78.70;;;;;;5052935;28;20032;-69
2023/06/06 07:48:12;;;;;;;6.72;3.13;;;21.70;78.20;;;;;;5053326;28;20387;-69
2023/06/06 07:50:38;;;;;;;8.77;2.47;;;21.90;77.90;;;;;;5052933;28;20363;-70
2023/06/06 07:53:04;;;;;;;7.45;2.83;;;22.20;76.60;;;;;;5052048;28;20029;-70
2023/06/06 07:55:30;;;;;;;6.72;2.55;;;22.40;76.60;;;;;;5051733;28;20104;-68
2023/06/06 07:57:57;;;;;;;7.97;2.40;;;22.50;75.70;;;;;;5052776;28;20098;-70
2023/06/06 08:00:23;;;;;;;7.53;2.50;;;22.50;75.60;;;;;;5053067;28;20365;-69
2023/06/06 08:02:49;;;;;;;6.70;2.20;;;22.60;75.60;;;;;;5052765;28;20021;-69
2023/06/06 08:05:16;;;;;;;6.72;2.40;;;22.70;75.10;;;;;;5052796;28;20044;-70
2023/06/06 08:07:42;;;;;;;9.25;2.67;;;22.90;75.30;;;;;;5052622;28;20500;-70
2023/06/06 08:10:08;;;;;;;5.90;2.58;;;22.90;74.20;;;;;;5052968;28;20033;-69
2023/06/06 08:12:35;;;;;;;6.90;2.97;;;22.70;74.20;;;;;;5052145;28;20093;-70
2023/06/06 08:15:01;;;;;;;6.75;2.20;;;22.70;74.30;;;;;;5052826;28;20033;-68
2023/06/06 08:17:27;;;;;;;4.18;2.53;;;22.90;73.70;;;;;;5052853;28;20029;-69
2023/06/06 08:19:52;;;;;;;9.35;2.80;;;23.00;73.70;;;;;;5051635;28;20041;-68
2023/06/06 08:22:18;;;;;;;7.03;2.35;;;23.10;73.10;;;;;;5052402;28;20390;-69
2023/06/06 08:24:44;;;;;;;4.97;2.30;;;23.10;73.40;;;;;;5052772;28;20402;-69
2023/06/06 08:27:10;;;;;;;3.72;2.38;;;23.20;73.00;;;;;;5052484;28;20018;-68
2023/06/06 08:29:36;;;;;;;9.60;2.60;;;23.20;72.90;;;;;;5052140;28;20057;-67
2023/06/06 08:32:03;;;;;;;4.53;2.63;;;23.30;73.10;;;;;;5052232;28;20060;-69
2023/06/06 08:34:28;;;;;;;5.30;2.50;;;23.60;74.10;;;;;;5052331;28;20040;-69
2023/06/06 08:36:55;;;;;;;4.53;2.22;;;23.90;71.40;;;;;;5050966;28;20317;-68
2023/06/06 08:39:21;;;;;;;6.82;2.38;;;24.10;70.40;;;;;;5052517;28;20028;-68
2023/06/06 08:41:54;;;;;;;6.53;2.80;;;24.40;70.80;;;;;;5051661;28;20091;-69
2023/06/06 08:44:22;;;;;;;6.70;2.65;;;24.60;71.00;;;;;;5052015;28;20037;-69
2023/06/06 08:46:50;;;;;;;10.25;2.55;;;24.80;70.20;;;;;;5051791;28;20021;-68
2023/06/06 08:49:18;;;;;;;3.92;2.65;;;25.20;69.10;;;;;;5051743;28;20035;-68
2023/06/06 08:51:44;;;;;;;;;;;25.50;69.30;;;;;;5052852;28;20021;-69
2023/06/06 08:54:11;;;;;;;8.75;2.80;;;25.90;67.50;;;;;;5072049;28;19919;-70
2023/06/06 08:56:38;;;;;;;4.10;2.20;;;25.90;66.20;;;;;;5071979;28;20463;-71
2023/06/06 08:59:04;;;;;;;6.15;3.00;;;25.80;65.70;;;;;;5059760;28;20455;-71
2023/06/06 09:01:31;;;;;;;3.45;2.25;;;25.60;66.00;;;;;;5051753;28;20186;-70
2023/06/06 09:03:58;;;;;;;7.40;2.70;;;25.80;65.30;;;;;;5051720;28;20017;-71
2023/06/06 09:06:23;;;;;;;5.95;2.40;;;26.00;65.70;;;;;;5051096;28;20121;-71
2023/06/06 09:08:50;;;;;;;7.97;2.65;;;26.40;65.00;;;;;;5051736;28;20112;-70
2023/06/06 09:11:17;;;;;;;4.47;2.38;;;26.60;64.30;;;;;;5051973;28;20033;-67
2023/06/06 09:13:43;;;;;;;4.30;2.53;;;26.50;63.50;;;;;;5051539;28;20116;-71
2023/06/06 09:16:09;;;;;;;8.57;2.85;;;26.60;64.60;;;;;;5050131;28;20368;-71
2023/06/06 09:18:35;;;;;;;5.78;2.95;;;26.80;63.50;;;;;;5050936;28;20024;-70
2023/06/06 09:21:02;;;;;;;6.15;2.75;;;26.60;63.50;;;;;;5050258;28;20536;-69
2023/06/06 09:23:31;;;;;;;5.57;2.47;;;26.20;62.80;;;;;;5051471;28;20036;-70
2023/06/06 09:25:57;;;;;;;6.85;2.95;;;26.10;63.40;;;;;;5051414;28;20074;-70
2023/06/06 09:28:40;;;;;;;4.80;2.83;;;26.30;63.40;;;;;;5051058;28;20094;-69
2023/06/06 09:31:30;;;;;;;3.55;2.42;;;26.30;63.70;;;;;;5050758;28;20065;-69
2023/06/06 09:33:57;;;;;;;9.18;2.97;;;26.10;63.50;;;;;;5051600;28;20013;-70
2023/06/06 09:36:27;;;;;;;3.90;2.30;;;25.80;63.10;;;;;;5051504;28;20021;-69
2023/06/06 09:38:55;;;;;;;9.88;3.63;;;25.50;64.20;;;;;;5051231;28;20025;-70
2023/06/06 09:41:21;;;;;;;8.45;2.58;;;25.70;65.30;;;;;;5049950;28;20044;-69
2023/06/06 09:43:47;;;;;;;4.68;2.40;;;26.00;64.10;;;;;;5051455;28;20025;-70
2023/06/06 09:46:17;;;;;;;4.32;2.00;;;26.10;64.40;;;;;;5049753;28;20351;-70
2023/06/06 09:49:01;;;;;;;4.35;2.40;;;26.10;62.70;;;;;;5050377;28;20470;-69
2023/06/06 09:51:30;;;;;;;4.40;2.30;;;26.10;63.60;;;;;;5051175;28;20052;-70
2023/06/06 09:53:56;;;;;;;8.65;2.85;;;26.10;63.10;;;;;;5049891;28;20040;-69
2023/06/06 09:56:25;;;;;;;13.52;4.03;;;26.20;63.90;;;;;;5049906;28;20041;-69
2023/06/06 09:58:55;;;;;;;5.05;2.40;;;26.50;63.10;;;;;;5050783;28;20241;-69
2023/06/06 10:01:28;;;;;;;21.55;3.85;;;26.40;60.90;;;;;;5050463;28;20033;-68
2023/06/06 10:03:56;;;;;;;8.00;2.42;;;26.40;60.40;;;;;;5050600;28;20148;-68
2023/06/06 10:06:26;;;;;;;7.53;2.90;;;26.40;60.50;;;;;;5051598;28;20091;-67
2023/06/06 10:08:57;;;;;;;5.05;2.40;;;26.20;59.70;;;;;;5050813;28;20041;-68
2023/06/06 10:11:24;;;;;;;4.93;2.33;;;26.40;59.70;;;;;;5050770;28;20037;-69
2023/06/06 10:13:51;;;;;;;5.07;2.33;;;26.50;59.60;;;;;;5049580;28;20037;-69
2023/06/06 10:16:19;;;;;;;7.05;2.88;;;26.60;59.40;;;;;;5050545;28;20025;-71
2023/06/06 10:18:46;;;;;;;8.00;2.50;;;26.70;59.30;;;;;;5050255;28;20017;-68
2023/06/06 10:21:15;;;;;;;4.15;1.83;;;26.70;59.10;;;;;;5049640;28;20040;-68
2023/06/06 10:23:42;;;;;;;4.93;2.55;;;26.70;58.90;;;;;;5050374;28;20052;-69
2023/06/06 10:26:13;;;;;;;7.30;2.35;;;26.60;59.60;;;;;;5029004;28;20120;-68
2023/06/06 10:28:49;;;;;;;3.97;2.20;;;26.70;58.90;;;;;;5031201;28;20030;-69
2023/06/06 10:31:27;;;;;;;8.97;2.37;;;26.60;58.90;;;;;;5031172;28;20037;-69
2023/06/06 10:34:00;;;;;;;7.00;2.78;;;26.70;58.70;;;;;;5031660;28;20087;-70
2023/06/06 10:36:36;;;;;;;11.30;2.67;;;26.80;58.90;;;;;;5031573;28;20029;-69
2023/06/06 10:39:21;;;;;;;4.05;2.60;;;26.80;58.90;;;;;;5030922;28;20473;-71
2023/06/06 10:42:06;;;;;;;6.65;2.53;;;26.80;59.00;;;;;;5031116;28;20037;-70
2023/06/06 10:44:35;;;;;;;9.35;2.72;;;27.00;58.60;;;;;;5031172;28;20037;-70
2023/06/06 10:47:23;;;;;;;6.22;1.92;;;26.90;58.50;;;;;;5031108;28;20470;-70
2023/06/06 10:50:08;;;;;;;8.15;2.08;;;26.90;58.60;;;;;;5046810;28;20033;-71
2023/06/06 10:52:45;;;;;;;4.28;2.72;;;27.10;57.60;;;;;;5031070;28;20419;-71
2023/06/06 10:55:23;;;;;;;9.70;2.55;;;27.10;57.20;;;;;;5030972;28;20363;-71
2023/06/06 10:57:53;;;;;;;5.22;2.53;;;27.00;57.50;;;;;;5031002;28;20559;-71
2023/06/06 11:00:25;;;;;;;5.05;2.42;;;26.90;57.00;;;;;;5031424;28;20032;-70
2023/06/06 11:02:52;;;;;;;15.90;6.20;;;26.70;57.30;;;;;;5030004;28;20057;-71
2023/06/06 11:05:21;;;;;;;8.77;2.58;;;26.60;57.70;;;;;;5033531;28;20026;-71
2023/06/06 11:07:50;;;;;;;5.88;2.65;;;26.50;58.70;;;;;;5035146;28;20364;-71
2023/06/06 11:10:22;;;;;;;5.95;2.53;;;26.60;58.80;;;;;;5034562;28;20476;-72
2023/06/06 11:12:51;;;;;;;4.05;2.47;;;26.70;58.30;;;;;;5034804;28;20033;-72
2023/06/06 11:15:35;;;;;;;5.38;2.47;;;26.60;58.00;;;;;;5035260;28;20413;-71
2023/06/06 11:18:04;;;;;;;3.88;2.00;;;26.50;57.90;;;;;;5034778;28;20053;-72
2023/06/06 11:20:40;;;;;;;4.80;2.08;;;26.40;57.90;;;;;;5034860;28;20116;-71
2023/06/06 11:23:06;;;;;;;7.00;2.47;;;26.40;57.70;;;;;;5034484;28;20341;-71
2023/06/06 11:25:35;;;;;;;6.55;2.47;;;26.40;57.60;;;;;;5034125;28;20033;-71
2023/06/06 11:28:01;;;;;;;5.28;2.45;;;26.50;57.70;;;;;;5033936;28;20503;-71
2023/06/06 11:30:31;;;;;;;5.43;1.73;;;26.50;57.60;;;;;;5049618;28;20080;-70
2023/06/06 11:32:57;;;;;;;5.63;2.03;;;26.50;58.20;;;;;;5049237;28;20044;-72
2023/06/06 11:35:24;;;;;;;3.05;1.88;;;26.60;57.80;;;;;;5033640;28;20033;-71
2023/06/06 11:37:50;;;;;;;6.10;2.00;;;26.40;57.90;;;;;;5033710;28;20037;-70
2023/06/06 11:40:16;;;;;;;7.53;2.13;;;26.20;57.50;;;;;;5033520;28;20412;-69
2023/06/06 11:42:43;;;;;;;6.85;2.40;;;26.20;58.60;;;;;;5034032;28;20022;-69
2023/06/06 11:45:14;;;;;;;6.93;2.10;;;26.20;57.20;;;;;;5033609;28;20053;-71
2023/06/06 11:47:40;;;;;;;5.57;2.17;;;26.20;57.40;;;;;;5033689;28;20037;-72
2023/06/06 11:50:06;;;;;;;5.78;2.63;;;26.20;57.60;;;;;;5032232;28;20486;-72
2023/06/06 11:52:41;;;;;;;12.60;2.25;;;26.20;57.70;;;;;;5034176;28;20052;-70
2023/06/06 11:55:07;;;;;;;6.20;2.22;;;26.20;59.30;;;;;;5033718;28;20176;-69
2023/06/06 11:57:37;;;;;;;13.52;3.55;;;26.20;59.20;;;;;;5033942;28;20105;-70
2023/06/06 12:00:17;;;;;;;4.50;2.47;;;26.10;59.50;;;;;;5033272;28;20123;-72
2023/06/06 12:02:51;;;;;;;8.00;2.95;;;26.10;59.70;;;;;;5033386;28;20037;-69
2023/06/06 12:05:22;;;;;;;7.88;2.72;;;26.10;59.80;;;;;;5032282;28;20022;-71
2023/06/06 12:07:54;;;;;;;8.30;2.67;;;26.10;59.80;;;;;;5032329;28;20040;-70
2023/06/06 12:10:27;;;;;;;4.88;2.47;;;26.20;60.00;;;;;;5033361;28;20034;-70
2023/06/06 12:12:52;;;;;;;6.28;2.42;;;26.00;59.60;;;;;;5033219;28;20109;-70
2023/06/06 12:15:18;;;;;;;9.38;3.65;;;26.00;59.70;;;;;;5032915;28;20021;-69
2023/06/06 12:17:44;;;;;;;5.82;2.58;;;26.00;60.90;;;;;;5032526;28;20459;-69
2023/06/06 12:20:10;;;;;;;4.15;2.17;;;26.00;61.20;;;;;;5032945;28;20060;-70
2023/06/06 12:22:36;;;;;;;7.53;2.22;;;26.00;61.50;;;;;;5032571;28;20448;-70
2023/06/06 12:25:04;;;;;;;8.88;2.60;;;26.20;61.40;;;;;;5032628;28;20021;-70
2023/06/06 12:27:42;;;;;;;5.65;2.90;;;26.20;60.60;;;;;;5048548;28;20025;-69
2023/06/06 12:30:08;;;;;;;8.38;2.13;;;26.20;58.10;;;;;;5032828;28;20135;-69
2023/06/06 12:32:36;;;;;;;5.60;2.25;;;26.20;57.20;;;;;;5032604;28;20095;-70
2023/06/06 12:35:02;;;;;;;6.63;2.40;;;26.10;57.30;;;;;;5032849;28;20490;-70
2023/06/06 12:37:42;;;;;;;4.78;2.30;;;26.10;58.00;;;;;;5032388;28;20037;-70
2023/06/06 12:40:33;;;;;;;6.15;2.38;;;26.10;59.10;;;;;;5047367;28;20461;-71
2023/06/06 12:43:04;;;;;;;9.88;2.58;;;26.20;59.80;;;;;;5030967;28;20025;-70
2023/06/06 12:45:35;;;;;;;3.50;2.40;;;26.20;59.90;;;;;;5032649;28;20037;-70
2023/06/06 12:48:02;;;;;;;10.13;2.75;;;26.20;60.60;;;;;;5048165;28;20034;-72
2023/06/06 12:50:28;;;;;;;5.47;2.70;;;26.20;60.30;;;;;;5031198;28;20105;-70